| time (UTC) | temp F | wind direction | speed MPH | gust MPH | rain 1hr in | rain 24hr in | rain mn in | humidity % | barometer mb |
| 20260904090030 | 48 | 269 | 3.0 | 5.0 | 0.00 | 0.00 | 0.00 | 90 | 1013.0 |
| 20260904084556 | 48 | 247 | 4.0 | 5.0 | 0.00 | 0.00 | 0.00 | 89 | 1013.0 |
| 20260904083031 | 49 | 254 | 3.0 | 5.0 | 0.00 | 0.00 | 0.00 | 88 | 1012.9 |
| 20260904080032 | 48 | 269 | 4.0 | 5.0 | 0.00 | 0.00 | 0.00 | 89 | 1013.0 |
| 20260904073030 | 48 | 282 | 4.0 | 7.0 | 0.00 | 0.00 | 0.00 | 90 | 1012.9 |
| 20260904071530 | 48 | 272 | 5.0 | 7.0 | 0.00 | 0.00 | 0.00 | 91 | 1012.9 |
| 20260904064529 | 48 | 286 | 5.0 | 7.0 | 0.00 | 0.01 | 0.01 | 90 | 1012.7 |
| 20260904063108 | 49 | 277 | 5.0 | 7.0 | 0.00 | 0.01 | 0.01 | 90 | 1012.9 |
| 20260904061530 | 48 | 273 | 6.0 | 7.0 | 0.00 | 0.01 | 0.01 | 92 | 1012.8 |
| 20260904060030 | 48 | 277 | 5.0 | 7.0 | 0.00 | 0.01 | 0.01 | 93 | 1012.8 |
| 20260904054531 | 48 | 281 | 3.0 | 5.0 | 0.00 | 0.01 | 0.01 | 93 | 1012.7 |
| 20260904053032 | 49 | 290 | 2.0 | 4.0 | 0.00 | 0.01 | 0.01 | 92 | 1012.7 |
| 20260904051604 | 49 | 278 | 3.0 | 5.0 | 0.00 | 0.01 | 0.01 | 92 | 1012.8 |
| 20260904050030 | 49 | 286 | 4.0 | 5.0 | 0.00 | 0.01 | 0.01 | 92 | 1012.9 |
| 20260904044529 | 49 | 271 | 4.0 | 6.0 | 0.00 | 0.01 | 0.01 | 92 | 1012.9 |
| 20260904043032 | 49 | 284 | 3.0 | 5.0 | 0.00 | 0.01 | 0.01 | 92 | 1012.9 |
| 20260904041532 | 50 | 292 | 3.0 | 5.0 | 0.00 | 0.01 | 0.01 | 93 | 1012.9 |
| 20260904040107 | 50 | 292 | 2.0 | 4.0 | 0.00 | 0.01 | 0.01 | 93 | 1013.0 |
| 20260904034528 | 50 | 272 | 3.0 | 5.0 | 0.00 | 0.01 | 0.01 | 92 | 1012.9 |
| 20260904033107 | 49 | 273 | 3.0 | 5.0 | 0.00 | 0.01 | 0.01 | 90 | 1012.7 |
| 20260904031530 | 50 | 275 | 4.0 | 5.0 | 0.00 | 0.01 | 0.01 | 89 | 1012.6 |
| 20260904024606 | 51 | 279 | 5.0 | 9.0 | 0.00 | 0.01 | 0.01 | 85 | 1012.4 |
| 20260904023030 | 52 | 279 | 5.0 | 14.0 | 0.00 | 0.01 | 0.01 | 84 | 1012.3 |
| 20260904020146 | 53 | 301 | 7.0 | 15.0 | 0.00 | 0.03 | 0.01 | 83 | 1012.1 |
| 20260904013102 | 54 | 288 | 5.0 | 12.0 | 0.00 | 0.11 | 0.01 | 84 | 1012.2 |
| 20260904011531 | 55 | 261 | 4.0 | 7.0 | 0.00 | 0.11 | 0.01 | 83 | 1012.2 |
| 20260904010034 | 55 | 286 | 4.0 | 7.0 | 0.00 | 0.11 | 0.01 | 81 | 1012.2 |
| 20260904004531 | 57 | 311 | 4.0 | 11.0 | 0.00 | 0.11 | 0.01 | 77 | 1012.2 |
| 20260904003028 | 58 | 331 | 3.0 | 8.0 | 0.00 | 0.12 | 0.01 | 79 | 1012.1 |
| 20260904001529 | 57 | 330 | 4.0 | 8.0 | 0.00 | 0.14 | 0.01 | 78 | 1012.1 |
| 20260904000146 | 57 | 311 | 4.0 | 10.0 | 0.00 | 0.16 | 0.01 | 81 | 1012.1 |
| 20260903233031 | 54 | 315 | 6.0 | 12.0 | 0.00 | 0.19 | 0.01 | 84 | 1012.3 |
| 20260903230032 | 55 | 299 | 9.0 | 19.0 | 0.00 | 0.20 | 0.01 | 81 | 1012.3 |
| 20260903224604 | 56 | 300 | 10.0 | 18.0 | 0.00 | 0.21 | 0.01 | 79 | 1012.4 |
| 20260903223030 | 56 | 301 | 9.0 | 15.0 | 0.00 | 0.21 | 0.01 | 78 | 1012.2 |
| 20260903221530 | 57 | 304 | 8.0 | 17.0 | 0.00 | 0.22 | 0.01 | 76 | 1012.3 |
| 20260903220031 | 57 | 304 | 8.0 | 20.0 | 0.00 | 0.23 | 0.01 | 76 | 1012.4 |
| 20260903214606 | 58 | 322 | 9.0 | 19.0 | 0.00 | 0.24 | 0.01 | 71 | 1012.4 |
| 20260903213033 | 63 | 338 | 8.0 | 18.0 | 0.00 | 0.26 | 0.01 | 65 | 1012.4 |
| 20260903211532 | 62 | 30 | 4.0 | 9.0 | 0.00 | 0.27 | 0.01 | 65 | 1012.5 |
| 20260903210031 | 64 | 9 | 3.0 | 7.0 | 0.00 | 0.28 | 0.01 | 65 | 1012.6 |
| 20260903204647 | 63 | 41 | 4.0 | 9.0 | 0.00 | 0.31 | 0.01 | 67 | 1012.5 |
| 20260903203031 | 60 | 40 | 2.0 | 7.0 | 0.00 | 0.32 | 0.01 | 71 | 1012.6 |
| 20260903201530 | 60 | 60 | 2.0 | 6.0 | 0.00 | 0.33 | 0.01 | 74 | 1012.8 |
| 20260903200030 | 59 | 41 | 2.0 | 5.0 | 0.00 | 0.34 | 0.01 | 76 | 1013.0 |
| 20260903194532 | 59 | 90 | 2.0 | 7.0 | 0.00 | 0.34 | 0.01 | 77 | 1013.0 |
| 20260903193030 | 58 | 20 | 3.0 | 7.0 | 0.00 | 0.34 | 0.01 | 81 | 1013.2 |
| 20260903191604 | 56 | 20 | 3.0 | 7.0 | 0.00 | 0.35 | 0.01 | 82 | 1013.4 |
| 20260903190031 | 57 | 22 | 4.0 | 8.0 | 0.00 | 0.35 | 0.01 | 84 | 1013.5 |
| 20260903184529 | 56 | 23 | 3.0 | 7.0 | 0.00 | 0.35 | 0.01 | 88 | 1013.6 |
| 20260903183030 | 55 | 40 | 4.0 | 9.0 | 0.00 | 0.35 | 0.01 | 91 | 1013.5 |
| 20260903181533 | 54 | 91 | 3.0 | 10.0 | 0.00 | 0.35 | 0.01 | 93 | 1013.5 |
| 20260903180031 | 54 | 64 | 3.0 | 8.0 | 0.00 | 0.35 | 0.01 | 95 | 1013.5 |
| 20260903174529 | 52 | 60 | 3.0 | 7.0 | 0.00 | 0.35 | 0.01 | 96 | 1013.4 |
| 20260903173105 | 52 | 49 | 4.0 | 10.0 | 0.00 | 0.35 | 0.01 | 96 | 1013.4 |
| 20260903171530 | 51 | 43 | 4.0 | 9.0 | 0.00 | 0.35 | 0.01 | 97 | 1013.4 |
| 20260903170147 | 50 | 9 | 2.0 | 5.0 | 0.00 | 0.35 | 0.01 | 97 | 1013.5 |
| 20260903164528 | 50 | 96 | 0.0 | 4.0 | 0.00 | 0.35 | 0.01 | 97 | 1013.6 |
| 20260903161531 | 50 | 24 | 0.0 | 4.0 | 0.00 | 0.35 | 0.01 | 97 | 1013.4 |
| 20260903154530 | 49 | 314 | 0.0 | 3.0 | 0.00 | 0.35 | 0.01 | 98 | 1013.4 |
| 20260903153030 | 49 | 50 | 0.0 | 2.0 | 0.00 | 0.35 | 0.01 | 98 | 1013.4 |
| 20260903151530 | 48 | 62 | 0.0 | 0.0 | 0.00 | 0.35 | 0.01 | 98 | 1013.4 |
| 20260903150030 | 48 | 85 | 0.0 | 4.0 | 0.00 | 0.35 | 0.01 | 98 | 1013.3 |
| 20260903144532 | 47 | 315 | 1.0 | 2.0 | 0.00 | 0.35 | 0.01 | 98 | 1013.2 |
| 20260903143106 | 46 | 335 | 2.0 | 4.0 | 0.00 | 0.35 | 0.01 | 98 | 1013.1 |
| 20260903141532 | 45 | 282 | 2.0 | 5.0 | 0.00 | 0.35 | 0.01 | 97 | 1013.0 |
| 20260903140032 | 45 | 270 | 4.0 | 6.0 | 0.00 | 0.35 | 0.01 | 97 | 1012.9 |
| 20260903134607 | 45 | 250 | 3.0 | 5.0 | 0.00 | 0.35 | 0.01 | 97 | 1012.9 |
| 20260903133031 | 45 | 292 | 1.0 | 3.0 | 0.00 | 0.35 | 0.01 | 97 | 1012.7 |
| 20260903131529 | 45 | 292 | 3.0 | 5.0 | 0.00 | 0.35 | 0.01 | 97 | 1012.5 |
| 20260903130030 | 45 | 309 | 3.0 | 5.0 | 0.00 | 0.35 | 0.01 | 97 | 1012.5 |
| 20260903124529 | 45 | 298 | 4.0 | 5.0 | 0.00 | 0.35 | 0.01 | 97 | 1012.5 |
| 20260903123107 | 45 | 292 | 4.0 | 4.0 | 0.00 | 0.35 | 0.01 | 97 | 1012.6 |
| 20260903121529 | 45 | 296 | 3.0 | 5.0 | 0.00 | 0.35 | 0.01 | 97 | 1012.6 |
| 20260903120030 | 45 | 297 | 3.0 | 5.0 | 0.00 | 0.35 | 0.01 | 97 | 1012.6 |
| 20260903114607 | 45 | 292 | 3.0 | 5.0 | 0.00 | 0.35 | 0.01 | 97 | 1012.7 |
| 20260903113030 | 45 | 278 | 3.0 | 5.0 | 0.00 | 0.35 | 0.01 | 97 | 1012.6 |
| 20260903111530 | 45 | 270 | 3.0 | 5.0 | 0.00 | 0.35 | 0.01 | 96 | 1012.5 |
| 20260903110031 | 46 | 290 | 2.0 | 5.0 | 0.00 | 0.35 | 0.01 | 96 | 1012.4 |
| 20260903103031 | 47 | 299 | 3.0 | 4.0 | 0.00 | 0.35 | 0.01 | 96 | 1012.2 |
| 20260903101530 | 47 | 304 | 3.0 | 5.0 | 0.00 | 0.35 | 0.01 | 96 | 1012.1 |
| 20260903100030 | 48 | 293 | 3.0 | 5.0 | 0.00 | 0.35 | 0.01 | 96 | 1012.1 |
| 20260903094531 | 48 | 265 | 3.0 | 6.0 | 0.00 | 0.35 | 0.01 | 97 | 1012.3 |
| 20260903093032 | 47 | 277 | 4.0 | 6.0 | 0.00 | 0.35 | 0.01 | 96 | 1012.2 |
| 20260903091529 | 47 | 270 | 3.0 | 5.0 | 0.00 | 0.35 | 0.01 | 96 | 1012.3 |